FLI401 BIKF-EKVG
Flight info
| Callsign | FLI401 |
|---|---|
| Flight time | 1h 22m |
| Altitude | 37000 |
| Route | OSKUM3C OSKUM DCT MAGNI |
| Aircraft | A320/M-SDE3FGHIRWY/LB1 |
Departure
| Time | 2026-04-30 19:36 |
|---|---|
| Airport | Keflavik International Airport (BIKF) |
Arrival
| Time | 2026-04-30 20:58 |
|---|---|
| Airport | Vágar Airport (EKVG) |
| Time | Latitude | Longitude | Altitude | Speed | Heading |
|---|---|---|---|---|---|
| 2026-04-30 19:36 | 63.93032 | -22.49532 | 3831 ft | 272 kts | 115° |
| 2026-04-30 19:36 | 63.92226 | -22.45233 | 3976 ft | 319 kts | 114° |
| 2026-04-30 19:36 | 63.90302 | -22.34739 | 4577 ft | 373 kts | 112° |
| 2026-04-30 19:37 | 63.89463 | -22.29695 | 5925 ft | 306 kts | 112° |
| 2026-04-30 19:37 | 63.88747 | -22.25682 | 7321 ft | 256 kts | 115° |
| 2026-04-30 19:37 | 63.88002 | -22.21834 | 7854 ft | 278 kts | 116° |
| 2026-04-30 19:37 | 63.87162 | -22.17679 | 8216 ft | 302 kts | 116° |
| 2026-04-30 19:38 | 63.86241 | -22.13165 | 8527 ft | 326 kts | 116° |
| 2026-04-30 19:38 | 63.85257 | -22.08327 | 8785 ft | 349 kts | 116° |
| 2026-04-30 19:38 | 63.84249 | -22.03308 | 8949 ft | 371 kts | 115° |
| 2026-04-30 19:38 | 63.83517 | -21.97337 | 9102 ft | 395 kts | 98° |
| 2026-04-30 19:39 | 63.83181 | -21.91197 | 10021 ft | 387 kts | 98° |
| 2026-04-30 19:39 | 63.82860 | -21.85230 | 11075 ft | 383 kts | 98° |
| 2026-04-30 19:39 | 63.82532 | -21.79179 | 11761 ft | 388 kts | 98° |
| 2026-04-30 19:39 | 63.82197 | -21.73076 | 12364 ft | 394 kts | 99° |
| 2026-04-30 19:40 | 63.81851 | -21.66856 | 12986 ft | 400 kts | 99° |
| 2026-04-30 19:40 | 63.81492 | -21.60584 | 13582 ft | 404 kts | 99° |
| 2026-04-30 19:40 | 63.81120 | -21.54226 | 14153 ft | 410 kts | 99° |
| 2026-04-30 19:40 | 63.80743 | -21.47804 | 14723 ft | 415 kts | 99° |
| 2026-04-30 19:41 | 63.80361 | -21.41293 | 15269 ft | 419 kts | 99° |
| 2026-04-30 19:41 | 63.79972 | -21.34725 | 15790 ft | 423 kts | 99° |
| 2026-04-30 19:41 | 63.79578 | -21.28091 | 16298 ft | 427 kts | 99° |
| 2026-04-30 19:41 | 63.79178 | -21.21411 | 16804 ft | 431 kts | 99° |
| 2026-04-30 19:42 | 63.78767 | -21.14636 | 17306 ft | 436 kts | 99° |
| 2026-04-30 19:42 | 63.78351 | -21.07873 | 17789 ft | 439 kts | 99° |
| 2026-04-30 19:42 | 63.77961 | -21.01725 | 18225 ft | 442 kts | 101° |
| 2026-04-30 19:42 | 63.77235 | -20.94896 | 18672 ft | 444 kts | 107° |
| 2026-04-30 19:43 | 63.76580 | -20.89289 | 19076 ft | 447 kts | 107° |
| 2026-04-30 19:43 | 63.75787 | -20.82520 | 19544 ft | 449 kts | 107° |
| 2026-04-30 19:43 | 63.74978 | -20.75651 | 20000 ft | 452 kts | 107° |
| 2026-04-30 19:44 | 63.73336 | -20.61859 | 20888 ft | 457 kts | 107° |
| 2026-04-30 19:44 | 63.72501 | -20.54918 | 21314 ft | 460 kts | 107° |
| 2026-04-30 19:44 | 63.72158 | -20.52073 | 21485 ft | 461 kts | 107° |
| 2026-04-30 19:45 | 63.72077 | -20.51404 | 21522 ft | 461 kts | 107° |
| 2026-04-30 19:46 | 63.71239 | -20.44372 | 21920 ft | 464 kts | 104° |
| 2026-04-30 19:46 | 63.70672 | -20.37195 | 22288 ft | 467 kts | 101° |
| 2026-04-30 19:46 | 63.70168 | -20.30444 | 22665 ft | 469 kts | 101° |
| 2026-04-30 19:46 | 63.69617 | -20.23122 | 23034 ft | 471 kts | 101° |
| 2026-04-30 19:47 | 63.69054 | -20.15742 | 23408 ft | 473 kts | 101° |
| 2026-04-30 19:47 | 63.68681 | -20.10894 | 23647 ft | 475 kts | 101° |
| 2026-04-30 19:47 | 63.67971 | -20.01754 | 24082 ft | 477 kts | 101° |
| 2026-04-30 19:47 | 63.67392 | -19.94394 | 24417 ft | 479 kts | 101° |
| 2026-04-30 19:48 | 63.66809 | -19.87078 | 24743 ft | 481 kts | 101° |
| 2026-04-30 19:48 | 63.66205 | -19.79545 | 25063 ft | 483 kts | 102° |
| 2026-04-30 19:48 | 63.65605 | -19.72083 | 25381 ft | 485 kts | 102° |
| 2026-04-30 19:48 | 63.64997 | -19.64593 | 25688 ft | 486 kts | 102° |
| 2026-04-30 19:49 | 63.64382 | -19.57095 | 25982 ft | 488 kts | 102° |
| 2026-04-30 19:49 | 63.63134 | -19.41923 | 26560 ft | 491 kts | 102° |
| 2026-04-30 19:49 | 63.62519 | -19.34506 | 26826 ft | 493 kts | 102° |
| 2026-04-30 19:50 | 63.61869 | -19.26758 | 27108 ft | 494 kts | 102° |
| 2026-04-30 19:50 | 63.61226 | -19.19171 | 27364 ft | 496 kts | 102° |
| 2026-04-30 19:50 | 63.60584 | -19.11663 | 27631 ft | 497 kts | 102° |
| 2026-04-30 19:50 | 63.59911 | -19.03823 | 28013 ft | 496 kts | 102° |
| 2026-04-30 19:51 | 63.59283 | -18.96488 | 28363 ft | 494 kts | 102° |
| 2026-04-30 19:51 | 63.58615 | -18.88765 | 28720 ft | 493 kts | 102° |
| 2026-04-30 19:51 | 63.57956 | -18.81216 | 29066 ft | 492 kts | 103° |
| 2026-04-30 19:51 | 63.57295 | -18.73668 | 29414 ft | 491 kts | 103° |
| 2026-04-30 19:52 | 63.56635 | -18.66154 | 29767 ft | 490 kts | 103° |
| 2026-04-30 19:52 | 63.55973 | -18.58683 | 30118 ft | 488 kts | 103° |
| 2026-04-30 19:52 | 63.55309 | -18.51230 | 30461 ft | 487 kts | 103° |
| 2026-04-30 19:52 | 63.54639 | -18.43775 | 30781 ft | 486 kts | 103° |
| 2026-04-30 19:53 | 63.53970 | -18.36367 | 31094 ft | 486 kts | 103° |
| 2026-04-30 19:53 | 63.53297 | -18.28949 | 31402 ft | 485 kts | 103° |
| 2026-04-30 19:53 | 63.52839 | -18.23950 | 31603 ft | 485 kts | 104° |
| 2026-04-30 19:53 | 63.52156 | -18.16538 | 31894 ft | 485 kts | 104° |
| 2026-04-30 19:54 | 63.51473 | -18.09143 | 32182 ft | 484 kts | 104° |
| 2026-04-30 19:54 | 63.50788 | -18.01757 | 32486 ft | 484 kts | 104° |
| 2026-04-30 19:54 | 63.50101 | -17.94390 | 32752 ft | 484 kts | 104° |
| 2026-04-30 19:54 | 63.49409 | -17.87018 | 33027 ft | 484 kts | 104° |
| 2026-04-30 19:55 | 63.48712 | -17.79648 | 33310 ft | 483 kts | 104° |
| 2026-04-30 19:55 | 63.48011 | -17.72289 | 33582 ft | 483 kts | 104° |
| 2026-04-30 19:55 | 63.47308 | -17.64960 | 33853 ft | 483 kts | 104° |
| 2026-04-30 19:55 | 63.46598 | -17.57647 | 34111 ft | 482 kts | 104° |
| 2026-04-30 19:56 | 63.45878 | -17.50290 | 34371 ft | 483 kts | 104° |
| 2026-04-30 19:56 | 63.45158 | -17.42971 | 34622 ft | 483 kts | 104° |
| 2026-04-30 19:56 | 63.44432 | -17.35605 | 34862 ft | 483 kts | 104° |
| 2026-04-30 19:56 | 63.43706 | -17.28252 | 35076 ft | 484 kts | 104° |
| 2026-04-30 19:57 | 63.42982 | -17.20951 | 35312 ft | 485 kts | 104° |
| 2026-04-30 19:57 | 63.42244 | -17.13540 | 35536 ft | 485 kts | 104° |
| 2026-04-30 19:57 | 63.41527 | -17.06377 | 35749 ft | 485 kts | 104° |
| 2026-04-30 19:57 | 63.40787 | -16.98993 | 35944 ft | 486 kts | 104° |
| 2026-04-30 19:58 | 63.40055 | -16.91731 | 36578 ft | 474 kts | 105° |
| 2026-04-30 19:58 | 63.39333 | -16.84633 | 36985 ft | 470 kts | 105° |
| 2026-04-30 19:58 | 63.38604 | -16.77531 | 37315 ft | 467 kts | 105° |
| 2026-04-30 19:58 | 63.37876 | -16.70484 | 37614 ft | 464 kts | 105° |
| 2026-04-30 19:59 | 63.37152 | -16.63530 | 37820 ft | 464 kts | 105° |
| 2026-04-30 19:59 | 63.36431 | -16.56638 | 37982 ft | 464 kts | 105° |
| 2026-04-30 19:59 | 63.34946 | -16.42500 | 38280 ft | 466 kts | 105° |
| 2026-04-30 20:00 | 63.34206 | -16.35486 | 38442 ft | 466 kts | 105° |
| 2026-04-30 20:00 | 63.33457 | -16.28440 | 38578 ft | 467 kts | 105° |
| 2026-04-30 20:00 | 63.32706 | -16.21427 | 38727 ft | 467 kts | 105° |
| 2026-04-30 20:00 | 63.31948 | -16.14403 | 38846 ft | 468 kts | 105° |
| 2026-04-30 20:01 | 63.30419 | -16.00320 | 38870 ft | 468 kts | 105° |
| 2026-04-30 20:01 | 63.28885 | -15.86291 | 38868 ft | 467 kts | 105° |
| 2026-04-30 20:02 | 63.26544 | -15.65212 | 38872 ft | 471 kts | 105° |
| 2026-04-30 20:03 | 63.24126 | -15.43737 | 38870 ft | 482 kts | 106° |
| 2026-04-30 20:03 | 63.22479 | -15.29242 | 38878 ft | 487 kts | 106° |
| 2026-04-30 20:04 | 63.20811 | -15.14766 | 38877 ft | 487 kts | 106° |
| 2026-04-30 20:05 | 63.18266 | -14.92895 | 38879 ft | 486 kts | 106° |
| 2026-04-30 20:05 | 63.15695 | -14.71178 | 38888 ft | 487 kts | 107° |
| 2026-04-30 20:06 | 63.13966 | -14.56812 | 38898 ft | 486 kts | 107° |
| 2026-04-30 20:06 | 63.12220 | -14.42367 | 38901 ft | 486 kts | 107° |
| 2026-04-30 20:07 | 63.10472 | -14.27930 | 38913 ft | 486 kts | 107° |
| 2026-04-30 20:08 | 63.07800 | -14.06322 | 38946 ft | 486 kts | 107° |
| 2026-04-30 20:08 | 63.05998 | -13.91950 | 38961 ft | 486 kts | 108° |
| 2026-04-30 20:09 | 63.04203 | -13.77662 | 38950 ft | 473 kts | 108° |
| 2026-04-30 20:09 | 63.01521 | -13.56586 | 38952 ft | 481 kts | 108° |
| 2026-04-30 20:10 | 62.99703 | -13.42541 | 38370 ft | 476 kts | 108° |
| 2026-04-30 20:10 | 62.98799 | -13.35561 | 37926 ft | 471 kts | 108° |
| 2026-04-30 20:10 | 62.97905 | -13.28681 | 37500 ft | 466 kts | 109° |
| 2026-04-30 20:11 | 62.96112 | -13.15056 | 36224 ft | 465 kts | 109° |
| 2026-04-30 20:11 | 62.95207 | -13.08244 | 35497 ft | 466 kts | 109° |
| 2026-04-30 20:11 | 62.94295 | -13.01379 | 35085 ft | 471 kts | 110° |
| 2026-04-30 20:12 | 62.92424 | -12.87401 | 34983 ft | 481 kts | 110° |
| 2026-04-30 20:12 | 62.91472 | -12.80331 | 34980 ft | 486 kts | 110° |
| 2026-04-30 20:13 | 62.89537 | -12.65979 | 34993 ft | 488 kts | 110° |
| 2026-04-30 20:13 | 62.87592 | -12.51712 | 34985 ft | 489 kts | 110° |
| 2026-04-30 20:14 | 62.85625 | -12.37433 | 34998 ft | 489 kts | 110° |
| 2026-04-30 20:14 | 62.83653 | -12.23191 | 35009 ft | 488 kts | 110° |
| 2026-04-30 20:15 | 62.81662 | -12.08989 | 35012 ft | 488 kts | 111° |
| 2026-04-30 20:15 | 62.79656 | -11.94801 | 35026 ft | 488 kts | 111° |
| 2026-04-30 20:16 | 62.77643 | -11.80645 | 35036 ft | 488 kts | 111° |
| 2026-04-30 20:16 | 62.75618 | -11.66541 | 35040 ft | 487 kts | 111° |
| 2026-04-30 20:17 | 62.73572 | -11.52404 | 35044 ft | 487 kts | 111° |
| 2026-04-30 20:17 | 62.71512 | -11.38333 | 35050 ft | 487 kts | 112° |
| 2026-04-30 20:18 | 62.69432 | -11.24283 | 35052 ft | 488 kts | 112° |
| 2026-04-30 20:18 | 62.67350 | -11.10253 | 35066 ft | 488 kts | 112° |
| 2026-04-30 20:19 | 62.65307 | -10.96501 | 35060 ft | 460 kts | 112° |
| 2026-04-30 20:19 | 62.63371 | -10.83621 | 34880 ft | 442 kts | 112° |
| 2026-04-30 20:19 | 62.62411 | -10.77309 | 34429 ft | 437 kts | 113° |
| 2026-04-30 20:20 | 62.61463 | -10.71113 | 34005 ft | 432 kts | 113° |
| 2026-04-30 20:20 | 62.60516 | -10.64947 | 33571 ft | 428 kts | 114° |
| 2026-04-30 20:20 | 62.59574 | -10.58835 | 33116 ft | 425 kts | 114° |
| 2026-04-30 20:20 | 62.58633 | -10.52733 | 32655 ft | 421 kts | 114° |
| 2026-04-30 20:21 | 62.57705 | -10.46716 | 32197 ft | 418 kts | 114° |
| 2026-04-30 20:21 | 62.56799 | -10.40856 | 31744 ft | 414 kts | 114° |
| 2026-04-30 20:21 | 62.55881 | -10.34939 | 31276 ft | 411 kts | 115° |
| 2026-04-30 20:21 | 62.54971 | -10.29092 | 30815 ft | 408 kts | 115° |
| 2026-04-30 20:22 | 62.54064 | -10.23276 | 30358 ft | 405 kts | 115° |
| 2026-04-30 20:22 | 62.53164 | -10.17532 | 29912 ft | 402 kts | 115° |
| 2026-04-30 20:22 | 62.52264 | -10.11825 | 29446 ft | 399 kts | 115° |
| 2026-04-30 20:22 | 62.51369 | -10.06175 | 28993 ft | 396 kts | 115° |
| 2026-04-30 20:23 | 62.50475 | -10.00557 | 28518 ft | 393 kts | 115° |
| 2026-04-30 20:23 | 62.49590 | -9.94995 | 28068 ft | 390 kts | 115° |
| 2026-04-30 20:23 | 62.48707 | -9.89462 | 27602 ft | 388 kts | 115° |
| 2026-04-30 20:23 | 62.47829 | -9.83965 | 27143 ft | 385 kts | 115° |
| 2026-04-30 20:24 | 62.46953 | -9.78492 | 26672 ft | 382 kts | 115° |
| 2026-04-30 20:24 | 62.46087 | -9.73094 | 26238 ft | 380 kts | 115° |
| 2026-04-30 20:24 | 62.45219 | -9.67716 | 25803 ft | 377 kts | 115° |
| 2026-04-30 20:24 | 62.44360 | -9.62389 | 25349 ft | 374 kts | 116° |
| 2026-04-30 20:25 | 62.42922 | -9.53546 | 24590 ft | 370 kts | 116° |
| 2026-04-30 20:25 | 62.42069 | -9.48322 | 24141 ft | 368 kts | 116° |
| 2026-04-30 20:26 | 62.40372 | -9.37972 | 23255 ft | 363 kts | 115° |
| 2026-04-30 20:26 | 62.38697 | -9.27771 | 22423 ft | 359 kts | 115° |
| 2026-04-30 20:26 | 62.37861 | -9.22699 | 22003 ft | 357 kts | 115° |
| 2026-04-30 20:27 | 62.36188 | -9.12632 | 21165 ft | 352 kts | 115° |
| 2026-04-30 20:27 | 62.34538 | -9.02778 | 20380 ft | 348 kts | 115° |
| 2026-04-30 20:28 | 62.32904 | -8.93022 | 19592 ft | 344 kts | 115° |
| 2026-04-30 20:28 | 62.31278 | -8.83407 | 18852 ft | 340 kts | 115° |
| 2026-04-30 20:29 | 62.29653 | -8.73844 | 18098 ft | 336 kts | 115° |
| 2026-04-30 20:30 | 62.27260 | -8.59810 | 17032 ft | 331 kts | 115° |
| 2026-04-30 20:30 | 62.24887 | -8.45977 | 16010 ft | 325 kts | 115° |
| 2026-04-30 20:31 | 62.22530 | -8.32381 | 15027 ft | 320 kts | 115° |
| 2026-04-30 20:32 | 62.20201 | -8.18995 | 14197 ft | 317 kts | 115° |
| 2026-04-30 20:32 | 62.18657 | -8.10227 | 13581 ft | 312 kts | 116° |
| 2026-04-30 20:33 | 62.17893 | -8.05901 | 13248 ft | 311 kts | 115° |
| 2026-04-30 20:33 | 62.16358 | -7.97233 | 12577 ft | 307 kts | 115° |
| 2026-04-30 20:33 | 62.15600 | -7.92964 | 12230 ft | 306 kts | 115° |
| 2026-04-30 20:34 | 62.14081 | -7.84456 | 11549 ft | 303 kts | 115° |
| 2026-04-30 20:34 | 62.12438 | -7.76441 | 11145 ft | 286 kts | 123° |
| 2026-04-30 20:35 | 62.11478 | -7.72794 | 11007 ft | 277 kts | 125° |
| 2026-04-30 20:35 | 62.10451 | -7.69387 | 10753 ft | 269 kts | 137° |
| 2026-04-30 20:35 | 62.07379 | -7.65394 | 10116 ft | 254 kts | 168° |
| 2026-04-30 20:36 | 62.05679 | -7.64910 | 9787 ft | 247 kts | 186° |
| 2026-04-30 20:36 | 62.04035 | -7.65718 | 9445 ft | 242 kts | 207° |
| 2026-04-30 20:36 | 62.01781 | -7.70764 | 8728 ft | 241 kts | 248° |
| 2026-04-30 20:37 | 62.01479 | -7.74265 | 8367 ft | 244 kts | 269° |
| 2026-04-30 20:37 | 62.01744 | -7.77844 | 8001 ft | 246 kts | 281° |
| 2026-04-30 20:37 | 62.02227 | -7.81340 | 7638 ft | 246 kts | 284° |
| 2026-04-30 20:37 | 62.02719 | -7.84818 | 7289 ft | 244 kts | 282° |
| 2026-04-30 20:38 | 62.03153 | -7.88308 | 6941 ft | 243 kts | 281° |
| 2026-04-30 20:38 | 62.03528 | -7.91800 | 6605 ft | 241 kts | 279° |
| 2026-04-30 20:38 | 62.03863 | -7.95278 | 6272 ft | 238 kts | 278° |
| 2026-04-30 20:39 | 62.04463 | -8.02024 | 5896 ft | 222 kts | 282° |
| 2026-04-30 20:39 | 62.05026 | -8.05050 | 5686 ft | 220 kts | 296° |
| 2026-04-30 20:39 | 62.05963 | -8.07638 | 5394 ft | 223 kts | 313° |
| 2026-04-30 20:40 | 62.08720 | -8.10605 | 4817 ft | 229 kts | 348° |
| 2026-04-30 20:40 | 62.10331 | -8.10624 | 4505 ft | 232 kts | 6° |
| 2026-04-30 20:40 | 62.11839 | -8.09618 | 4206 ft | 234 kts | 25° |
| 2026-04-30 20:41 | 62.14139 | -8.04865 | 3728 ft | 233 kts | 63° |
| 2026-04-30 20:41 | 62.14669 | -8.01603 | 3701 ft | 233 kts | 82° |
| 2026-04-30 20:41 | 62.14726 | -7.98153 | 3713 ft | 232 kts | 97° |
| 2026-04-30 20:41 | 62.14529 | -7.94740 | 3704 ft | 231 kts | 101° |
| 2026-04-30 20:42 | 62.14251 | -7.91359 | 3712 ft | 231 kts | 103° |
| 2026-04-30 20:42 | 62.13917 | -7.88000 | 3699 ft | 230 kts | 105° |
| 2026-04-30 20:42 | 62.13199 | -7.81360 | 3712 ft | 230 kts | 105° |
| 2026-04-30 20:43 | 62.12842 | -7.78029 | 3712 ft | 230 kts | 105° |
| 2026-04-30 20:43 | 62.12484 | -7.74699 | 3711 ft | 230 kts | 105° |
| 2026-04-30 20:43 | 62.12123 | -7.71388 | 3701 ft | 229 kts | 105° |
| 2026-04-30 20:44 | 62.11412 | -7.64714 | 3514 ft | 229 kts | 106° |
| 2026-04-30 20:44 | 62.11025 | -7.61423 | 3220 ft | 228 kts | 107° |
| 2026-04-30 20:44 | 62.10218 | -7.54929 | 2677 ft | 225 kts | 106° |
| 2026-04-30 20:45 | 62.09412 | -7.48525 | 2131 ft | 221 kts | 107° |
| 2026-04-30 20:45 | 62.09021 | -7.45403 | 2003 ft | 213 kts | 106° |
| 2026-04-30 20:45 | 62.08648 | -7.42410 | 1875 ft | 204 kts | 106° |
| 2026-04-30 20:46 | 62.07617 | -7.34167 | 1597 ft | 173 kts | 107° |
| 2026-04-30 20:46 | 62.07348 | -7.32024 | 2775 ft | 138 kts | 109° |
| 2026-04-30 20:47 | 62.06808 | -7.27711 | 4205 ft | 168 kts | 110° |
| 2026-04-30 20:47 | 62.06487 | -7.25328 | 4832 ft | 166 kts | 112° |
| 2026-04-30 20:48 | 62.04882 | -7.22273 | 4348 ft | 170 kts | 180° |
| 2026-04-30 20:48 | 62.03748 | -7.22856 | 3926 ft | 171 kts | 215° |
| 2026-04-30 20:48 | 62.03002 | -7.24777 | 3542 ft | 172 kts | 250° |
| 2026-04-30 20:48 | 62.02806 | -7.27294 | 3255 ft | 173 kts | 264° |
| 2026-04-30 20:49 | 62.02761 | -7.29854 | 2940 ft | 173 kts | 266° |
| 2026-04-30 20:49 | 62.02732 | -7.32409 | 2638 ft | 173 kts | 267° |
| 2026-04-30 20:49 | 62.02700 | -7.34975 | 2322 ft | 174 kts | 267° |
| 2026-04-30 20:50 | 62.02614 | -7.40137 | 1695 ft | 175 kts | 267° |
| 2026-04-30 20:50 | 62.02562 | -7.42750 | 1488 ft | 181 kts | 267° |
| 2026-04-30 20:50 | 62.02504 | -7.45437 | 2096 ft | 179 kts | 266° |
| 2026-04-30 20:50 | 62.02450 | -7.48070 | 2842 ft | 177 kts | 266° |
| 2026-04-30 20:51 | 62.02603 | -7.50655 | 3463 ft | 183 kts | 287° |
| 2026-04-30 20:51 | 62.03793 | -7.55419 | 3606 ft | 181 kts | 296° |
| 2026-04-30 20:51 | 62.04430 | -7.57731 | 3606 ft | 180 kts | 296° |
| 2026-04-30 20:52 | 62.05065 | -7.60034 | 3607 ft | 180 kts | 297° |
| 2026-04-30 20:52 | 62.05495 | -7.61592 | 3606 ft | 180 kts | 297° |
| 2026-04-30 20:52 | 62.06776 | -7.66196 | 3607 ft | 180 kts | 297° |
| 2026-04-30 20:53 | 62.07585 | -7.68192 | 3605 ft | 178 kts | 322° |
| 2026-04-30 20:53 | 62.08796 | -7.68952 | 3618 ft | 185 kts | 358° |
| 2026-04-30 20:53 | 62.10005 | -7.68037 | 3602 ft | 188 kts | 33° |
| 2026-04-30 20:54 | 62.11190 | -7.63639 | 3266 ft | 170 kts | 92° |
| 2026-04-30 20:54 | 62.10970 | -7.61185 | 2888 ft | 168 kts | 109° |
| 2026-04-30 20:54 | 62.10669 | -7.58792 | 2510 ft | 164 kts | 108° |
| 2026-04-30 20:55 | 62.10124 | -7.54364 | 1722 ft | 155 kts | 106° |
| 2026-04-30 20:55 | 62.09850 | -7.52159 | 1410 ft | 152 kts | 106° |
| 2026-04-30 20:55 | 62.09574 | -7.49938 | 1413 ft | 155 kts | 106° |
| 2026-04-30 20:56 | 62.09024 | -7.45491 | 1412 ft | 154 kts | 106° |
| 2026-04-30 20:56 | 62.08752 | -7.43285 | 1408 ft | 155 kts | 105° |
| 2026-04-30 20:56 | 62.08200 | -7.38812 | 1408 ft | 156 kts | 106° |
| 2026-04-30 20:57 | 62.07931 | -7.36658 | 1158 ft | 150 kts | 106° |
| 2026-04-30 20:57 | 62.07659 | -7.34477 | 896 ft | 149 kts | 105° |
| 2026-04-30 20:57 | 62.07283 | -7.32388 | 907 ft | 151 kts | 121° |
| 2026-04-30 20:58 | 62.06491 | -7.28269 | 285 ft | 138 kts | 121° |
| 2026-04-30 20:58 | 62.06170 | -7.26952 | 276 ft | 65 kts | 118° |
| 2026-04-30 20:58 | 62.06026 | -7.26382 | 254 ft | 34 kts | 118° |
| 2026-04-30 20:58 | 62.05961 | -7.26116 | 245 ft | 7 kts | 116° |
| 2026-04-30 20:59 | 62.05949 | -7.26027 | 245 ft | 6 kts | 113° |
| 2026-04-30 20:59 | 62.05936 | -7.26028 | 246 ft | 1 kts | 250° |
| 2026-04-30 21:00 | 62.05979 | -7.26196 | 248 ft | 6 kts | 299° |
| 2026-04-30 21:00 | 62.06062 | -7.26525 | 262 ft | 15 kts | 298° |
| 2026-04-30 21:01 | 62.06162 | -7.26937 | 276 ft | 23 kts | 298° |
| 2026-04-30 21:01 | 62.06234 | -7.27220 | 280 ft | 20 kts | 298° |
| 2026-04-30 21:01 | 62.06351 | -7.27680 | 293 ft | 15 kts | 297° |
| 2026-04-30 21:02 | 62.06396 | -7.27869 | 295 ft | 14 kts | 297° |
| 2026-04-30 21:02 | 62.06448 | -7.28081 | 293 ft | 13 kts | 296° |
| 2026-04-30 21:02 | 62.06464 | -7.28137 | 289 ft | 5 kts | 316° |
| 2026-04-30 21:02 | 62.06525 | -7.28124 | 287 ft | 10 kts | 20° |